createdAt,value
2023-05-09T00:00:25.166Z,3.80
2023-05-09T00:01:30.836Z,3.50
2023-05-09T00:02:34.906Z,3.35
2023-05-09T00:03:36.833Z,3.75
2023-05-09T00:04:38.638Z,3.58
2023-05-09T00:05:40.895Z,3.63
2023-05-09T00:06:42.764Z,3.58
2023-05-09T00:07:45.759Z,3.80
2023-05-09T00:08:47.487Z,3.47
2023-05-09T00:09:51.016Z,3.40
2023-05-09T00:10:53.930Z,3.70
2023-05-09T00:11:59.382Z,3.35
2023-05-09T00:13:01.280Z,3.30
2023-05-09T00:14:03.961Z,3.63
2023-05-09T00:15:08.452Z,3.90
2023-05-09T00:16:11.056Z,3.70
2023-05-09T00:17:14.798Z,3.75
2023-05-09T00:18:18.501Z,3.70
2023-05-09T00:19:21.277Z,3.63
2023-05-09T00:20:23.907Z,3.65
2023-05-09T00:21:26.174Z,3.88
2023-05-09T00:22:28.831Z,3.50
2023-05-09T00:23:32.239Z,3.55
2023-05-09T00:24:33.948Z,3.75
2023-05-09T00:25:35.695Z,3.70
2023-05-09T00:26:39.971Z,3.38
2023-05-09T00:27:42.104Z,3.80
2023-05-09T00:28:45.920Z,3.88
2023-05-09T00:29:47.704Z,3.60
2023-05-09T00:30:49.484Z,3.78
2023-05-09T00:31:52.082Z,3.50
2023-05-09T00:32:57.739Z,3.67
2023-05-09T00:33:59.690Z,3.80
2023-05-09T00:35:01.522Z,3.50
2023-05-09T00:36:03.499Z,3.55
2023-05-09T00:37:05.611Z,3.90
2023-05-09T00:38:09.720Z,3.90
2023-05-09T00:39:11.922Z,3.67
2023-05-09T00:40:13.944Z,3.78
2023-05-09T00:41:16.196Z,3.78
2023-05-09T00:42:18.575Z,3.70
2023-05-09T00:43:23.842Z,4.07
2023-05-09T00:44:26.625Z,3.70
2023-05-09T00:45:29.124Z,3.80
2023-05-09T00:46:30.967Z,4.13
2023-05-09T00:47:33.017Z,3.65
2023-05-09T00:48:36.704Z,3.90
2023-05-09T00:49:38.683Z,3.57
2023-05-09T00:50:40.416Z,3.80
2023-05-09T00:51:42.528Z,4.38
2023-05-09T00:52:46.561Z,4.03
2023-05-09T00:53:48.798Z,3.50
2023-05-09T00:54:52.983Z,3.42
2023-05-09T00:55:56.911Z,3.40
2023-05-09T00:57:00.677Z,4.10
2023-05-09T00:58:07.285Z,3.83
2023-05-09T00:59:10.093Z,3.80
2023-05-09T01:00:13.671Z,3.80
2023-05-09T01:01:16.834Z,3.95
2023-05-09T01:02:19.140Z,3.90
2023-05-09T01:03:21.148Z,4.05
2023-05-09T01:04:24.462Z,3.83
2023-05-09T01:05:29.637Z,3.97
2023-05-09T01:06:40.561Z,3.58
2023-05-09T01:08:01.092Z,3.83
2023-05-09T01:09:05.812Z,3.50
2023-05-09T01:10:27.436Z,4.00
2023-05-09T01:11:47.825Z,3.70
2023-05-09T01:13:08.423Z,3.92
2023-05-09T01:14:20.691Z,3.63
2023-05-09T01:15:26.007Z,3.63
2023-05-09T01:16:56.446Z,4.00
2023-05-09T01:19:27.512Z,4.10
2023-05-09T01:20:36.775Z,3.80
2023-05-09T01:21:39.864Z,3.88
2023-05-09T01:22:45.750Z,3.58
2023-05-09T01:24:11.616Z,3.90
2023-05-09T01:25:34.060Z,4.03
2023-05-09T01:26:47.881Z,3.80
2023-05-09T01:28:08.022Z,4.00
2023-05-09T01:29:21.573Z,4.13
2023-05-09T01:30:24.290Z,4.17
2023-05-09T01:31:30.697Z,4.00
2023-05-09T01:32:32.660Z,3.90
2023-05-09T01:33:36.633Z,3.88
2023-05-09T01:34:40.051Z,4.15
2023-05-09T01:35:43.498Z,4.28
2023-05-09T01:36:46.065Z,4.03
2023-05-09T01:37:49.719Z,4.50
2023-05-09T01:38:52.045Z,3.97
2023-05-09T01:39:55.640Z,4.18
2023-05-09T01:40:58.540Z,3.92
2023-05-09T01:42:02.428Z,3.85
2023-05-09T01:43:07.529Z,4.22
2023-05-09T01:44:11.582Z,4.00
2023-05-09T01:45:14.615Z,4.07
2023-05-09T01:46:18.750Z,4.18
2023-05-09T01:47:21.261Z,4.40
2023-05-09T01:48:26.504Z,3.88
2023-05-09T01:49:31.813Z,3.88
2023-05-09T01:50:36.024Z,3.72
2023-05-09T01:51:42.970Z,4.25
2023-05-09T01:52:48.196Z,3.92
2023-05-09T01:53:51.644Z,3.88
2023-05-09T01:54:53.808Z,4.38
2023-05-09T01:55:59.191Z,4.10
2023-05-09T01:57:05.347Z,4.25
2023-05-09T01:58:08.321Z,3.78
2023-05-09T01:59:16.808Z,4.15
2023-05-09T02:00:19.467Z,3.80
2023-05-09T02:01:24.198Z,4.00
2023-05-09T02:02:29.857Z,3.92
2023-05-09T02:03:34.216Z,3.90
2023-05-09T02:04:36.946Z,3.90
2023-05-09T02:05:39.568Z,4.00
2023-05-09T02:06:42.200Z,3.70
2023-05-09T02:07:46.491Z,4.32
2023-05-09T02:08:49.788Z,3.90
2023-05-09T02:09:54.465Z,4.10
2023-05-09T02:11:00.918Z,3.75
2023-05-09T02:12:04.657Z,4.03
2023-05-09T02:13:07.522Z,4.10
2023-05-09T02:14:09.576Z,3.80
2023-05-09T02:15:12.370Z,4.20
2023-05-09T02:16:19.022Z,4.07
2023-05-09T02:17:24.716Z,4.20
2023-05-09T02:18:26.391Z,3.63
2023-05-09T02:19:30.824Z,4.43
2023-05-09T02:20:36.006Z,4.18
2023-05-09T02:21:37.996Z,4.30
2023-05-09T02:22:46.786Z,4.40
2023-05-09T02:23:48.552Z,4.55
2023-05-09T02:24:50.243Z,4.90
2023-05-09T02:25:54.639Z,4.55
2023-05-09T02:26:57.627Z,4.05
2023-05-09T02:27:59.716Z,4.80
2023-05-09T02:29:02.714Z,4.32
2023-05-09T02:30:07.691Z,4.40
2023-05-09T02:31:11.061Z,4.57
2023-05-09T02:32:17.822Z,4.27
2023-05-09T02:33:19.389Z,4.88
2023-05-09T02:34:21.774Z,4.07
2023-05-09T02:35:25.894Z,4.13
2023-05-09T02:36:30.613Z,4.70
2023-05-09T02:37:36.560Z,4.28
2023-05-09T02:38:38.715Z,4.43
2023-05-09T02:39:42.276Z,4.25
2023-05-09T02:40:45.957Z,4.07
2023-05-09T02:41:51.770Z,4.40
2023-05-09T02:42:56.448Z,4.40
2023-05-09T02:43:59.117Z,4.30
2023-05-09T02:45:03.960Z,4.07
2023-05-09T02:46:06.814Z,4.07
2023-05-09T02:47:08.547Z,4.30
2023-05-09T02:48:10.709Z,4.00
2023-05-09T02:49:22.814Z,4.65
2023-05-09T02:50:32.836Z,4.15
2023-05-09T02:51:36.857Z,4.22
2023-05-09T02:52:39.717Z,4.28
2023-05-09T02:53:41.282Z,4.50
2023-05-09T02:54:48.061Z,4.28
2023-05-09T02:55:52.188Z,4.45
2023-05-09T02:56:53.833Z,4.75
2023-05-09T02:58:09.189Z,4.10
2023-05-09T02:59:14.761Z,4.78
2023-05-09T03:00:18.430Z,4.30
2023-05-09T03:01:20.350Z,4.63
2023-05-09T03:02:24.013Z,4.38
2023-05-09T03:03:25.699Z,4.60
2023-05-09T03:04:27.486Z,4.50
2023-05-09T03:05:29.698Z,4.40
2023-05-09T03:06:31.885Z,4.40
2023-05-09T03:07:39.953Z,4.25
2023-05-09T03:08:41.601Z,4.65
2023-05-09T03:09:43.518Z,4.57
2023-05-09T06:26:52.640Z,4.30
2023-05-09T06:27:54.211Z,6.10
2023-05-09T06:28:56.217Z,5.35
2023-05-09T06:29:57.869Z,4.70
2023-05-09T06:31:02.016Z,4.47
2023-05-09T06:32:05.076Z,5.30
2023-05-09T06:33:07.716Z,5.10
2023-05-09T06:34:09.257Z,5.30
2023-05-09T06:35:11.894Z,4.93
2023-05-09T06:36:13.878Z,4.75
2023-05-09T06:37:15.487Z,4.90
2023-05-09T06:38:17.395Z,4.65
2023-05-09T06:39:19.629Z,4.82
2023-05-09T06:40:22.103Z,5.63
2023-05-09T06:41:23.917Z,5.53
2023-05-09T06:42:25.811Z,4.75
2023-05-09T06:43:28.630Z,4.40
2023-05-09T06:44:31.435Z,5.00
2023-05-09T06:45:36.917Z,4.47
2023-05-09T06:46:40.016Z,4.45
2023-05-09T06:47:43.893Z,4.75
2023-05-09T06:48:45.881Z,4.97
2023-05-09T06:49:48.422Z,5.35
2023-05-09T06:50:50.502Z,4.95
2023-05-09T06:51:52.058Z,5.32
2023-05-09T06:52:53.695Z,4.55
2023-05-09T06:54:14.064Z,4.43
2023-05-09T06:55:23.044Z,4.90
2023-05-09T06:56:58.043Z,4.57
2023-05-09T06:58:00.330Z,4.75
2023-05-09T06:59:03.523Z,5.00
2023-05-09T07:00:07.554Z,5.25
2023-05-09T07:01:10.014Z,4.70
2023-05-09T07:02:12.003Z,4.97
2023-05-09T07:03:16.806Z,5.25
2023-05-09T07:04:24.866Z,4.82
2023-05-09T07:05:27.080Z,4.63
2023-05-09T07:07:31.985Z,4.47
2023-05-09T07:08:33.792Z,4.68
2023-05-09T07:09:35.725Z,5.07
2023-05-09T07:10:39.261Z,4.50
2023-05-09T07:11:46.243Z,4.88
2023-05-09T07:12:49.301Z,4.72
2023-05-09T07:13:51.182Z,4.50
2023-05-09T07:14:53.084Z,4.53
2023-05-09T07:15:56.312Z,4.82
2023-05-09T07:17:18.052Z,4.30
2023-05-09T07:18:23.102Z,4.47
2023-05-09T07:19:28.202Z,4.30
2023-05-09T07:20:33.515Z,4.53
2023-05-09T07:21:38.101Z,5.70
2023-05-09T07:22:43.659Z,4.93
2023-05-09T07:23:45.742Z,4.63
2023-05-09T07:24:48.792Z,4.68
2023-05-09T07:25:56.110Z,4.45
2023-05-09T07:27:00.282Z,4.20
2023-05-09T07:28:04.783Z,4.60
2023-05-09T07:29:07.022Z,4.43
2023-05-09T07:30:09.726Z,4.65
2023-05-09T07:31:13.571Z,4.35
2023-05-09T07:32:15.937Z,4.35
2023-05-09T08:43:51.117Z,2.80
2023-05-09T08:44:53.070Z,4.78
2023-05-09T08:45:58.504Z,3.70
2023-05-09T08:47:03.593Z,2.88
2023-05-09T08:48:07.200Z,3.25
2023-05-09T08:49:09.749Z,3.00
2023-05-09T08:50:15.911Z,3.40
2023-05-09T08:51:19.171Z,3.70
2023-05-09T08:52:21.223Z,3.20
2023-05-09T08:53:23.597Z,3.70
2023-05-09T08:54:25.611Z,3.30
2023-05-09T08:55:29.297Z,3.40
2023-05-09T08:56:32.495Z,3.08
2023-05-09T08:57:37.284Z,2.88
2023-05-09T08:58:39.312Z,3.30
2023-05-09T08:59:42.893Z,3.20
2023-05-09T09:00:45.675Z,3.45
2023-05-09T09:01:47.983Z,3.20
2023-05-09T09:02:50.077Z,3.33
2023-05-09T09:03:52.229Z,3.28
2023-05-09T09:04:55.121Z,3.85
2023-05-09T09:05:57.220Z,3.67
2023-05-09T09:06:59.851Z,3.80
2023-05-09T09:08:02.228Z,3.58
2023-05-09T09:09:10.451Z,4.03
2023-05-09T09:10:12.885Z,2.92
2023-05-09T09:11:18.578Z,3.63
2023-05-09T09:12:22.838Z,4.15
2023-05-09T09:13:24.918Z,3.42
2023-05-09T09:14:27.944Z,4.25
2023-05-09T09:15:36.158Z,4.20
2023-05-09T09:16:38.498Z,4.15
2023-05-09T09:17:42.958Z,3.80
2023-05-09T09:18:45.192Z,4.50
2023-05-09T09:19:49.908Z,3.72
2023-05-09T09:20:53.695Z,3.65
2023-05-09T09:21:59.034Z,4.78
2023-05-09T09:23:08.308Z,4.70
2023-05-09T09:24:13.180Z,4.60
2023-05-09T09:25:15.079Z,4.20
2023-05-09T09:26:17.152Z,3.65
2023-05-09T09:27:20.019Z,3.88
2023-05-09T09:28:21.871Z,3.88
2023-05-09T09:29:24.992Z,3.60
2023-05-09T09:30:27.171Z,4.35
2023-05-09T09:31:33.439Z,4.68
2023-05-09T09:32:35.928Z,4.03
2023-05-09T09:33:38.412Z,3.67
2023-05-09T09:34:52.070Z,3.78
2023-05-09T09:35:58.038Z,3.97
2023-05-09T09:37:00.051Z,3.42
2023-05-09T09:38:01.905Z,3.70
2023-05-09T09:39:07.970Z,3.47
2023-05-09T09:40:11.412Z,3.17
2023-05-09T09:41:13.850Z,3.72
2023-05-09T09:42:15.846Z,3.72
2023-05-09T09:43:18.134Z,3.75
2023-05-09T09:44:21.411Z,3.50
2023-05-09T09:45:23.735Z,4.20
2023-05-09T09:46:31.282Z,4.28
2023-05-09T09:47:33.549Z,3.45
2023-05-09T09:48:36.065Z,4.53
2023-05-09T12:54:11.314Z,1.65
2023-05-09T12:55:14.158Z,1.40
2023-05-09T12:56:25.752Z,1.40
2023-05-09T12:57:31.705Z,1.30
2023-05-09T12:58:33.853Z,1.30
2023-05-09T12:59:35.739Z,1.60
2023-05-09T13:00:44.530Z,1.15
2023-05-09T17:08:44.099Z,1.23
2023-05-09T17:09:46.237Z,1.40
2023-05-09T17:10:48.178Z,1.13
2023-05-09T17:11:49.929Z,1.10
2023-05-09T17:12:52.698Z,1.42
2023-05-09T17:13:54.388Z,1.20
2023-05-09T17:14:56.169Z,1.30
2023-05-09T17:16:02.621Z,1.20
2023-05-09T17:17:04.213Z,1.58
2023-05-09T17:18:06.799Z,1.25
2023-05-09T17:19:09.737Z,1.50
2023-05-09T17:20:11.937Z,1.40
2023-05-09T17:21:18.196Z,1.35
2023-05-09T17:22:19.789Z,1.27
2023-05-09T17:23:22.189Z,1.42
2023-05-09T17:24:23.877Z,1.60
2023-05-09T17:25:27.467Z,1.80
2023-05-09T17:26:29.831Z,1.63
2023-05-09T17:27:31.649Z,1.42
2023-05-09T17:28:33.201Z,1.52
2023-05-09T17:29:35.209Z,1.48
2023-05-09T17:30:36.916Z,1.70
2023-05-09T17:31:38.592Z,2.22
2023-05-09T17:32:42.550Z,1.55
2023-05-09T17:33:45.087Z,1.60
2023-05-09T17:34:47.217Z,1.63
2023-05-09T17:35:51.291Z,1.58
2023-05-09T17:36:53.086Z,1.20
2023-05-09T17:37:54.824Z,1.80
2023-05-09T17:38:56.741Z,1.20
2023-05-09T17:39:58.303Z,1.40
2023-05-09T17:41:00.228Z,1.30
2023-05-09T17:42:02.043Z,1.40
2023-05-09T17:43:04.024Z,1.02
2023-05-09T17:44:05.831Z,1.42
2023-05-09T17:45:07.944Z,1.20
2023-05-09T17:46:09.714Z,1.30
2023-05-09T17:47:12.732Z,2.05
2023-05-09T17:48:15.158Z,1.45
2023-05-09T17:49:17.232Z,1.27
2023-05-09T17:50:20.814Z,1.40
2023-05-09T17:51:22.622Z,1.65
2023-05-09T17:52:24.194Z,1.50
2023-05-09T17:53:25.960Z,1.58
2023-05-09T17:54:27.594Z,1.30
2023-05-09T17:55:29.128Z,1.27
2023-05-09T17:56:30.679Z,1.40
2023-05-09T17:57:32.306Z,1.17
2023-05-09T17:58:33.980Z,1.40
2023-05-09T17:59:35.844Z,1.17
2023-05-09T18:00:37.744Z,1.20
2023-05-09T18:01:39.406Z,1.45
2023-05-09T18:02:41.120Z,1.38
2023-05-09T18:03:42.918Z,1.48
2023-05-09T18:04:46.474Z,1.35
2023-05-09T18:05:48.053Z,1.83
2023-05-09T18:06:50.079Z,1.98
2023-05-09T18:07:51.640Z,1.42
2023-05-09T18:08:53.520Z,1.50
2023-05-09T18:09:55.213Z,1.20
2023-05-09T18:10:57.148Z,1.40
2023-05-09T18:11:59.411Z,1.45
2023-05-09T18:13:01.393Z,1.73
2023-05-09T18:14:03.718Z,1.15
2023-05-09T18:15:06.194Z,1.60
2023-05-09T18:16:08.006Z,1.50
2023-05-09T18:17:09.936Z,1.33
2023-05-09T18:18:14.307Z,1.40
2023-05-09T18:19:16.715Z,1.33
2023-05-09T18:20:18.504Z,1.30
2023-05-09T18:21:20.411Z,1.00
2023-05-09T18:22:22.519Z,1.20
2023-05-09T18:23:27.497Z,1.10
2023-05-09T18:24:29.143Z,1.20
2023-05-09T18:25:31.299Z,0.93
2023-05-09T18:28:39.901Z,1.17
2023-05-09T18:29:41.531Z,1.13
2023-05-09T18:30:43.193Z,1.10
2023-05-09T18:31:44.899Z,1.10
2023-05-09T18:32:47.569Z,1.98
2023-05-09T18:33:49.779Z,0.98
2023-05-09T18:34:51.873Z,1.08
2023-05-09T18:35:54.298Z,1.48
2023-05-09T18:36:56.002Z,0.90
2023-05-09T18:37:57.734Z,0.90
2023-05-09T18:38:59.548Z,1.10
2023-05-09T18:40:01.117Z,1.25
2023-05-09T18:41:03.573Z,1.00
2023-05-09T18:42:06.580Z,1.10
2023-05-09T18:43:08.217Z,1.27
2023-05-09T18:44:09.847Z,1.00
2023-05-09T18:45:11.722Z,1.08
2023-05-09T18:46:17.491Z,0.93
2023-05-09T18:47:19.414Z,1.30
2023-05-09T18:48:21.851Z,1.30
2023-05-09T18:49:26.116Z,1.40
2023-05-09T18:50:27.947Z,1.60
2023-05-09T18:51:31.246Z,1.23
2023-05-09T19:00:48.834Z,1.40
2023-05-09T19:01:50.480Z,1.10
2023-05-09T19:02:52.078Z,1.27
2023-05-09T19:03:55.258Z,1.13
2023-05-09T19:04:56.873Z,1.10
2023-05-09T19:05:58.768Z,1.20
2023-05-09T19:07:00.660Z,1.10
2023-05-09T19:08:03.777Z,1.10
2023-05-09T19:09:05.936Z,1.02
2023-05-09T19:10:10.855Z,1.48
2023-05-09T19:11:13.007Z,1.00
2023-05-09T19:12:16.605Z,1.20
2023-05-09T19:13:18.413Z,1.27
2023-05-09T19:14:20.092Z,1.10
2023-05-09T19:15:23.354Z,1.27
2023-05-09T19:16:26.771Z,1.60
2023-05-09T19:17:28.489Z,1.90
2023-05-09T19:18:30.158Z,1.70
2023-05-09T19:19:31.855Z,1.30
2023-05-09T19:20:33.409Z,1.33
2023-05-09T19:21:35.808Z,1.30
2023-05-09T19:22:37.743Z,1.83
2023-05-09T19:23:39.448Z,1.60
2023-05-09T19:24:41.357Z,1.65
2023-05-09T19:25:43.228Z,1.48
2023-05-09T19:26:44.846Z,1.20
2023-05-09T19:27:47.074Z,1.23
2023-05-09T19:28:48.694Z,1.40
2023-05-09T19:29:50.399Z,1.40
2023-05-09T19:30:52.263Z,1.67
2023-05-09T19:31:53.851Z,1.50
2023-05-09T19:32:55.502Z,1.30
2023-05-09T19:33:57.078Z,1.40
2023-05-09T19:34:59.001Z,1.30
2023-05-09T19:36:00.624Z,1.38
2023-05-09T19:37:02.882Z,1.60
2023-05-09T19:38:04.818Z,1.40
2023-05-09T19:39:06.440Z,0.90
2023-05-09T19:41:10.893Z,1.30
2023-05-09T19:42:12.649Z,1.50
2023-05-09T19:43:14.303Z,1.70
2023-05-09T19:44:15.873Z,1.20
2023-05-09T19:46:19.604Z,1.45
2023-05-09T19:47:21.192Z,1.40
2023-05-09T19:48:22.858Z,1.30
2023-05-09T19:49:24.497Z,1.45
2023-05-09T19:50:26.121Z,1.38
2023-05-09T19:51:27.854Z,1.50
2023-05-09T19:52:30.097Z,1.45
2023-05-09T19:53:31.697Z,1.15
2023-05-09T19:54:33.230Z,1.60
2023-05-09T19:55:34.849Z,1.50
2023-05-09T19:56:36.440Z,1.80
2023-05-09T19:57:38.093Z,1.25
2023-05-09T19:58:39.763Z,1.40
2023-05-09T19:59:41.356Z,1.48
2023-05-09T20:00:42.979Z,1.90
2023-05-09T20:01:44.861Z,1.92
2023-05-09T20:02:47.251Z,2.85
2023-05-09T20:03:52.214Z,2.22
2023-05-09T20:04:54.476Z,2.15
2023-05-09T20:05:56.087Z,1.60
2023-05-09T20:06:57.803Z,1.70
2023-05-09T20:07:59.357Z,1.95
2023-05-09T20:09:00.951Z,2.08
2023-05-09T20:10:02.542Z,2.03
2023-05-09T20:11:04.217Z,1.88
2023-05-09T20:12:06.092Z,1.80
2023-05-09T20:13:07.915Z,2.25
2023-05-09T20:14:10.118Z,1.98
2023-05-09T20:15:12.072Z,1.95
2023-05-09T20:16:13.782Z,1.80
2023-05-09T20:17:15.561Z,2.70
2023-05-09T20:18:17.176Z,1.65
2023-05-09T20:19:18.731Z,2.15
2023-05-09T20:20:20.304Z,2.22
2023-05-09T20:21:21.960Z,2.40
2023-05-09T20:22:23.504Z,2.53
2023-05-09T20:23:25.105Z,3.45
2023-05-09T20:24:27.067Z,3.53
2023-05-09T20:25:28.968Z,3.17
2023-05-09T20:26:31.562Z,4.07
2023-05-09T20:27:35.623Z,4.00
2023-05-09T20:28:38.440Z,3.72
2023-05-09T20:29:40.325Z,3.30
2023-05-09T20:30:43.025Z,4.32
2023-05-09T20:31:45.119Z,3.30
2023-05-09T20:32:47.436Z,2.40
2023-05-09T20:33:49.269Z,2.40
2023-05-09T20:34:51.066Z,2.95
2023-05-09T20:35:54.948Z,2.60
2023-05-09T20:36:57.099Z,2.55
2023-05-09T20:37:59.045Z,3.55
2023-05-09T20:39:03.045Z,3.28
2023-05-09T20:40:09.206Z,3.70
2023-05-09T20:41:13.076Z,5.20
2023-05-09T20:42:15.896Z,3.30
2023-05-09T20:43:20.841Z,3.58
2023-05-09T20:44:23.121Z,2.75
2023-05-09T20:45:25.401Z,3.03
2023-05-09T20:46:27.315Z,3.10
2023-05-09T20:47:29.281Z,3.20
2023-05-09T20:48:31.473Z,2.35
2023-05-09T20:49:33.282Z,2.67
2023-05-09T20:50:35.137Z,2.80
2023-05-09T20:51:37.139Z,2.60
2023-05-09T20:52:39.158Z,2.35
2023-05-09T20:53:40.942Z,2.15
2023-05-09T20:54:42.668Z,1.90
2023-05-09T20:55:46.360Z,1.73
2023-05-09T20:56:49.115Z,2.60
2023-05-09T20:57:52.115Z,2.08
2023-05-09T20:58:54.047Z,2.05
2023-05-09T20:59:57.394Z,2.38
2023-05-09T21:01:00.735Z,2.40
2023-05-09T21:02:06.787Z,2.50
2023-05-09T21:03:10.531Z,2.30
2023-05-09T21:04:12.419Z,2.10
2023-05-09T21:05:14.300Z,2.10
2023-05-09T21:06:16.203Z,2.40
2023-05-09T21:07:26.083Z,2.40
2023-05-09T21:08:31.707Z,2.38
2023-05-09T21:09:33.521Z,2.70
2023-05-09T21:10:36.348Z,2.33
2023-05-09T21:11:40.418Z,2.30
2023-05-09T21:12:43.345Z,2.30
2023-05-09T21:13:47.657Z,2.42
2023-05-09T21:14:58.271Z,2.50
2023-05-09T21:16:08.590Z,2.03
2023-05-09T21:17:11.063Z,2.10
2023-05-09T21:18:14.956Z,1.75
2023-05-09T21:19:18.505Z,2.08
2023-05-09T21:20:24.428Z,2.30
2023-05-09T21:21:29.736Z,2.35
2023-05-09T21:22:35.505Z,2.10
2023-05-09T21:23:38.330Z,2.10
2023-05-09T21:24:46.509Z,2.28
2023-05-09T21:25:51.251Z,1.83
2023-05-09T21:26:57.550Z,1.90
2023-05-09T21:28:03.613Z,2.47
2023-05-09T21:29:06.994Z,2.35
2023-05-09T21:30:10.369Z,1.98
2023-05-09T21:31:12.267Z,1.98
2023-05-09T21:32:14.534Z,2.10
2023-05-09T21:33:16.769Z,2.40
2023-05-09T21:34:19.094Z,2.20
2023-05-09T21:35:23.786Z,2.20
2023-05-09T21:36:26.628Z,1.95
2023-05-09T21:37:28.718Z,2.00
2023-05-09T21:38:31.119Z,1.98
2023-05-09T21:39:34.269Z,1.92
2023-05-09T21:40:38.633Z,1.85
2023-05-09T21:41:41.603Z,1.92
2023-05-09T21:42:46.256Z,2.00
2023-05-09T21:43:49.716Z,2.33
2023-05-09T21:44:51.780Z,1.65
2023-05-09T21:45:55.854Z,2.30
2023-05-09T21:46:58.469Z,1.88
2023-05-09T21:48:03.470Z,2.13
2023-05-09T21:49:08.073Z,2.53
2023-05-09T21:50:13.254Z,2.17
2023-05-09T21:51:18.289Z,2.40
2023-05-09T21:52:20.171Z,1.80
2023-05-09T21:53:25.332Z,2.05
2023-05-09T21:54:32.902Z,1.88
2023-05-09T21:55:39.446Z,2.47
2023-05-09T21:56:43.015Z,1.90
2023-05-09T21:57:46.524Z,1.88
2023-05-09T21:58:48.440Z,1.92
2023-05-09T21:59:50.116Z,2.05
2023-05-09T22:00:55.025Z,2.05
2023-05-09T22:01:58.042Z,2.00
2023-05-09T22:03:03.518Z,2.20
2023-05-09T22:04:07.807Z,2.90
2023-05-09T22:05:10.346Z,2.00
2023-05-09T22:06:12.344Z,2.05
2023-05-09T22:07:14.791Z,2.08
2023-05-09T22:08:17.297Z,2.47
2023-05-09T22:09:21.516Z,2.13
2023-05-09T22:10:25.808Z,2.10
2023-05-09T22:11:28.278Z,2.38
2023-05-09T22:12:32.452Z,2.05
2023-05-09T22:13:40.590Z,2.00
2023-05-09T22:14:52.982Z,2.55
2023-05-09T22:16:00.720Z,2.78
2023-05-09T22:17:02.346Z,2.35
2023-05-09T22:18:05.065Z,2.63
2023-05-09T22:19:06.885Z,2.28
2023-05-09T22:20:09.466Z,2.25
2023-05-09T22:21:12.812Z,2.08
2023-05-09T22:22:17.587Z,2.45
2023-05-09T22:23:19.226Z,2.40
2023-05-09T22:24:20.988Z,2.83
2023-05-09T22:25:25.614Z,2.40
2023-05-09T22:26:27.292Z,2.42
2023-05-09T22:27:31.538Z,2.70
2023-05-09T22:28:37.507Z,2.30
2023-05-09T22:29:39.215Z,2.30
2023-05-09T22:30:40.966Z,2.80
2023-05-09T22:31:43.166Z,2.70
2023-05-09T22:32:44.938Z,2.22
2023-05-09T22:33:49.122Z,2.70
2023-05-09T22:34:50.851Z,2.53
2023-05-09T22:35:52.573Z,2.47
2023-05-09T22:36:55.439Z,2.40
2023-05-09T22:37:57.277Z,2.20
2023-05-09T22:38:58.962Z,2.78
2023-05-09T22:40:03.489Z,2.15
2023-05-09T22:41:05.105Z,2.35
2023-05-09T22:42:09.619Z,2.35
2023-05-09T22:43:12.258Z,2.28
2023-05-09T22:44:14.533Z,2.25
2023-05-09T22:45:17.955Z,2.33
2023-05-09T22:46:22.122Z,2.30
2023-05-09T22:47:23.742Z,2.72
2023-05-09T22:48:28.684Z,2.30
2023-05-09T22:49:30.330Z,2.22
2023-05-09T22:50:32.903Z,2.30
2023-05-09T22:51:34.607Z,2.20
2023-05-09T22:52:36.231Z,2.47
2023-05-09T22:53:37.874Z,2.40
2023-05-09T22:54:40.803Z,2.50
2023-05-09T22:55:42.317Z,2.28
2023-05-09T22:56:43.869Z,1.80
2023-05-09T22:57:46.724Z,2.33
2023-05-09T22:58:48.344Z,2.03
2023-05-09T22:59:50.216Z,2.28
2023-05-09T23:00:52.138Z,2.33
2023-05-09T23:01:53.748Z,2.00
2023-05-09T23:02:55.325Z,2.63
2023-05-09T23:03:56.987Z,2.45
2023-05-09T23:04:58.713Z,2.45
2023-05-09T23:06:01.596Z,2.50
2023-05-09T23:07:03.223Z,2.22
2023-05-09T23:08:04.760Z,2.63
2023-05-09T23:09:06.680Z,2.72
2023-05-09T23:10:09.729Z,2.33
2023-05-09T23:11:11.304Z,2.20
2023-05-09T23:12:13.051Z,2.13
2023-05-09T23:13:15.170Z,2.40
2023-05-09T23:14:16.771Z,2.15
2023-05-09T23:15:18.376Z,2.38
2023-05-09T23:16:20.059Z,2.45
2023-05-09T23:17:22.050Z,3.00
2023-05-09T23:18:24.088Z,2.25
2023-05-09T23:19:25.708Z,2.00
2023-05-09T23:20:27.425Z,2.28
2023-05-09T23:21:30.187Z,2.35
2023-05-09T23:22:31.780Z,2.30
2023-05-09T23:23:33.422Z,3.03
2023-05-09T23:24:35.618Z,2.30
2023-05-09T23:25:37.181Z,2.03
2023-05-09T23:26:39.440Z,2.45
2023-05-09T23:27:41.004Z,2.38
2023-05-09T23:28:43.264Z,2.10
2023-05-09T23:29:47.568Z,2.72
2023-05-09T23:30:51.648Z,2.28
2023-05-09T23:31:54.311Z,2.50
2023-05-09T23:32:56.410Z,2.00
2023-05-09T23:33:59.143Z,2.30
2023-05-09T23:35:03.024Z,1.95
2023-05-09T23:36:04.858Z,2.45
2023-05-09T23:37:07.598Z,2.67
2023-05-09T23:38:09.176Z,2.50
2023-05-09T23:39:10.913Z,2.40
2023-05-09T23:40:13.844Z,2.30
2023-05-09T23:41:16.778Z,2.10
2023-05-09T23:42:20.329Z,2.17
2023-05-09T23:43:22.712Z,1.90
2023-05-09T23:44:26.007Z,2.08
2023-05-09T23:45:29.263Z,2.20
2023-05-09T23:46:32.157Z,2.45
2023-05-09T23:47:37.233Z,1.90
2023-05-09T23:48:40.336Z,2.03
2023-05-09T23:49:42.081Z,2.30
2023-05-09T23:50:43.864Z,2.30
2023-05-09T23:51:46.180Z,2.33
2023-05-09T23:52:49.539Z,2.13
2023-05-09T23:53:51.445Z,2.10
2023-05-09T23:54:53.499Z,1.88
2023-05-09T23:55:55.342Z,1.88
2023-05-09T23:56:58.146Z,1.80
2023-05-09T23:58:03.521Z,2.10
2023-05-09T23:59:06.296Z,2.20
